createdAt,value
2022-11-28T00:02:30.664Z,7.88
2022-11-28T00:07:38.239Z,7.25
2022-11-28T00:10:13.498Z,7.95
2022-11-28T00:12:46.407Z,8.13
2022-11-28T00:17:52.125Z,7.65
2022-11-28T00:22:59.670Z,7.97
2022-11-28T00:25:32.580Z,8.13
2022-11-28T00:30:40.608Z,7.85
2022-11-28T00:33:13.463Z,8.05
2022-11-28T00:35:46.534Z,7.25
2022-11-28T00:38:21.094Z,8.00
2022-11-28T00:40:59.944Z,7.93
2022-11-28T00:43:33.846Z,7.75
2022-11-28T00:46:07.235Z,7.43
2022-11-28T00:48:40.480Z,7.20
2022-11-28T00:51:18.361Z,7.38
2022-11-28T00:53:54.072Z,7.10
2022-11-28T00:56:31.648Z,8.18
2022-11-28T00:59:04.826Z,7.28
2022-11-28T01:01:39.356Z,8.45
2022-11-28T01:04:14.761Z,7.60
2022-11-28T01:06:49.968Z,7.30
2022-11-28T01:09:25.304Z,7.78
2022-11-28T01:11:58.376Z,8.43
2022-11-28T01:14:31.342Z,7.57
2022-11-28T01:19:37.436Z,7.67
2022-11-28T01:22:10.428Z,7.32
2022-11-28T01:24:46.722Z,7.68
2022-11-28T01:27:19.772Z,7.38
2022-11-28T01:32:26.048Z,7.80
2022-11-28T01:34:59.311Z,7.38
2022-11-28T01:37:32.166Z,8.30
2022-11-28T01:40:08.166Z,8.13
2022-11-28T01:42:41.093Z,7.93
2022-11-28T01:45:19.785Z,8.20
2022-11-28T01:47:59.200Z,7.97
2022-11-28T01:50:36.129Z,7.30
2022-11-28T01:53:12.654Z,8.32
2022-11-28T01:55:54.062Z,8.55
2022-11-28T01:58:27.384Z,7.90
2022-11-28T02:01:00.983Z,7.38
2022-11-28T02:03:41.768Z,7.90
2022-11-28T02:06:18.547Z,8.38
2022-11-28T02:08:52.191Z,7.82
2022-11-28T02:11:50.956Z,7.35
2022-11-28T02:14:42.689Z,7.57
2022-11-28T02:17:22.800Z,7.03
2022-11-28T02:20:33.306Z,8.57
2022-11-28T02:23:13.719Z,7.45
2022-11-28T02:26:19.866Z,8.80
2022-11-28T02:29:16.127Z,7.82
2022-11-28T02:32:13.335Z,8.68
2022-11-28T02:34:54.764Z,8.20
2022-11-28T02:37:35.744Z,8.15
2022-11-28T02:40:14.930Z,6.88
2022-11-28T02:42:59.709Z,9.00
2022-11-28T02:45:38.870Z,8.38
2022-11-28T02:48:18.998Z,8.77
2022-11-28T02:50:59.591Z,8.98
2022-11-28T02:53:35.042Z,8.48
2022-11-28T02:56:11.593Z,9.18
2022-11-28T02:58:44.782Z,8.77
2022-11-28T03:01:21.934Z,8.90
2022-11-28T03:04:13.859Z,9.02
2022-11-28T03:06:58.408Z,8.73
2022-11-28T03:09:47.283Z,8.40
2022-11-28T03:12:26.323Z,9.43
2022-11-28T03:15:02.897Z,9.23
2022-11-28T03:17:49.354Z,8.90
2022-11-28T03:20:29.408Z,9.27
2022-11-28T03:23:14.283Z,8.55
2022-11-28T03:25:57.213Z,9.35
2022-11-28T03:28:39.270Z,9.70
2022-11-28T03:31:18.940Z,8.82
2022-11-28T03:33:55.091Z,10.10
2022-11-28T03:36:32.882Z,9.43
2022-11-28T03:39:10.362Z,9.15
2022-11-28T03:41:49.751Z,10.23
2022-11-28T03:44:28.164Z,8.63
2022-11-28T03:47:03.602Z,9.50
2022-11-28T03:49:40.257Z,8.68
2022-11-28T03:52:19.434Z,9.20
2022-11-28T03:54:56.505Z,9.40
2022-11-28T03:57:35.618Z,9.23
2022-11-28T04:00:12.931Z,8.40
2022-11-28T04:02:53.902Z,8.82
2022-11-28T04:05:33.813Z,9.23
2022-11-28T04:08:15.604Z,9.23
2022-11-28T04:10:57.604Z,10.68
2022-11-28T04:13:34.170Z,8.73
2022-11-28T04:16:13.949Z,9.52
2022-11-28T04:18:53.884Z,10.57
2022-11-28T04:21:32.016Z,10.32
2022-11-28T04:24:10.069Z,9.93
2022-11-28T04:26:48.782Z,9.07
2022-11-28T04:29:24.451Z,10.68
2022-11-28T04:31:59.949Z,11.52
2022-11-28T04:34:35.767Z,11.80
2022-11-28T04:37:10.139Z,11.63
2022-11-28T04:39:48.484Z,11.50
2022-11-28T04:42:24.541Z,11.50
2022-11-28T04:45:02.421Z,11.25
2022-11-28T04:47:35.454Z,11.27
2022-11-28T04:50:09.630Z,12.10
2022-11-28T04:52:50.373Z,12.00
2022-11-28T04:55:32.036Z,11.13
2022-11-28T04:58:12.436Z,12.60
2022-11-28T05:00:47.228Z,11.60
2022-11-28T05:03:20.462Z,12.20
2022-11-28T05:05:53.884Z,12.35
2022-11-28T05:08:26.841Z,14.63
2022-11-28T05:13:34.042Z,12.77
2022-11-28T05:18:40.078Z,12.55
2022-11-28T05:21:14.126Z,13.35
2022-11-28T05:23:47.539Z,14.18
2022-11-28T05:26:22.601Z,15.00
2022-11-28T05:28:57.082Z,13.68
2022-11-28T05:31:30.640Z,15.02
2022-11-28T05:34:03.528Z,14.20
2022-11-28T05:39:09.276Z,14.77
2022-11-28T05:44:16.463Z,14.50
2022-11-28T05:46:50.623Z,15.70
2022-11-28T05:49:24.071Z,16.38
2022-11-28T05:51:57.324Z,15.38
2022-11-28T05:54:30.586Z,15.65
2022-11-28T05:57:06.667Z,14.95
2022-11-28T05:59:39.462Z,17.35
2022-11-28T06:02:12.416Z,16.73
2022-11-28T06:07:18.922Z,17.48
2022-11-28T06:09:51.908Z,18.27
2022-11-28T06:12:26.345Z,16.73
2022-11-28T06:14:59.185Z,17.98
2022-11-28T06:17:32.563Z,18.77
2022-11-28T06:20:07.629Z,18.85
2022-11-28T06:22:40.684Z,18.88
2022-11-28T06:27:47.636Z,20.30
2022-11-28T06:30:21.518Z,20.50
2022-11-28T06:32:56.062Z,19.63
2022-11-28T06:35:30.702Z,18.13
2022-11-28T06:38:11.442Z,18.83
2022-11-28T06:40:47.333Z,18.83
2022-11-28T06:43:23.391Z,18.77
2022-11-28T06:46:01.525Z,18.27
2022-11-28T06:48:43.633Z,21.27
2022-11-28T06:51:18.144Z,19.63
2022-11-28T06:53:52.771Z,20.95
2022-11-28T06:56:33.307Z,21.13
2022-11-28T06:59:08.184Z,20.50
2022-11-28T07:01:46.255Z,21.70
2022-11-28T07:04:20.617Z,20.27
2022-11-28T07:06:56.134Z,20.67
2022-11-28T07:09:32.972Z,19.67
2022-11-28T07:12:07.860Z,18.50
2022-11-28T07:14:43.444Z,20.25
2022-11-28T07:17:21.521Z,20.33
2022-11-28T07:20:04.318Z,22.40
2022-11-28T07:22:39.565Z,20.67
2022-11-28T07:25:14.241Z,21.77
2022-11-28T07:27:49.182Z,21.63
2022-11-28T07:30:24.149Z,21.83
2022-11-28T07:32:57.602Z,23.73
2022-11-28T07:35:31.584Z,21.63
2022-11-28T07:38:06.262Z,24.13
2022-11-28T07:40:39.629Z,21.65
2022-11-28T07:43:13.356Z,22.75
2022-11-28T07:46:00.686Z,23.00
2022-11-28T07:48:36.021Z,23.80
2022-11-28T07:51:11.150Z,25.90
2022-11-28T07:53:47.359Z,26.95
2022-11-28T07:56:39.389Z,23.63
2022-11-28T07:59:23.097Z,23.08
2022-11-28T08:01:58.193Z,23.98
2022-11-28T08:04:33.004Z,25.50
2022-11-28T08:07:06.967Z,25.25
2022-11-28T08:09:44.585Z,25.30
2022-11-28T08:12:17.986Z,26.50
2022-11-28T08:14:51.386Z,25.38
2022-11-28T08:17:25.857Z,26.42
2022-11-28T08:19:59.988Z,25.00
2022-11-28T08:22:34.747Z,26.05
2022-11-28T08:25:10.841Z,24.63
2022-11-28T08:27:46.393Z,25.15
2022-11-28T08:30:20.546Z,26.60
2022-11-28T08:32:57.579Z,22.73
2022-11-28T08:35:33.495Z,22.77
2022-11-28T08:38:07.555Z,22.15
2022-11-28T08:40:40.556Z,24.70
2022-11-28T08:45:49.600Z,22.05
2022-11-28T08:48:27.191Z,21.63
2022-11-28T08:51:00.986Z,21.77
2022-11-28T08:53:39.940Z,22.63
2022-11-28T08:56:14.486Z,22.38
2022-11-28T08:58:47.672Z,20.67
2022-11-28T09:01:23.915Z,19.98
2022-11-28T09:04:00.527Z,21.85
2022-11-28T09:06:34.499Z,22.10
2022-11-28T09:09:09.312Z,22.02
2022-11-28T09:11:42.683Z,21.27
2022-11-28T09:14:16.329Z,21.75
2022-11-28T09:16:52.960Z,22.95
2022-11-28T09:19:28.135Z,21.73
2022-11-28T09:22:01.777Z,22.92
2022-11-28T09:24:35.068Z,21.70
2022-11-28T09:27:08.101Z,21.38
2022-11-28T09:32:16.647Z,21.15
2022-11-28T09:34:51.825Z,22.23
2022-11-28T09:37:26.554Z,22.10
2022-11-28T09:40:17.198Z,21.15
2022-11-28T09:43:02.759Z,22.60
2022-11-28T09:45:40.013Z,24.33
2022-11-28T09:48:26.773Z,25.13
2022-11-28T09:51:07.084Z,24.88
2022-11-28T09:53:48.087Z,24.70
2022-11-28T09:56:25.406Z,25.38
2022-11-28T09:59:04.892Z,25.38
2022-11-28T10:01:45.533Z,26.80
2022-11-28T10:04:32.074Z,22.45
2022-11-28T10:07:16.644Z,24.65
2022-11-28T10:10:02.072Z,26.88
2022-11-28T10:13:03.395Z,22.85
2022-11-28T10:15:46.041Z,23.83
2022-11-28T10:18:52.599Z,24.77
2022-11-28T10:21:35.350Z,24.27
2022-11-28T10:24:19.163Z,25.60
2022-11-28T10:27:00.693Z,25.13
2022-11-28T10:29:44.857Z,24.65
2022-11-28T10:32:25.292Z,23.88
2022-11-28T10:35:05.389Z,27.17
2022-11-28T10:37:40.446Z,23.63
2022-11-28T10:40:26.935Z,22.20
2022-11-28T10:43:03.684Z,23.55
2022-11-28T10:45:47.661Z,21.90
2022-11-28T10:48:40.987Z,21.88
2022-11-28T10:51:31.302Z,22.63
2022-11-28T10:54:21.972Z,20.92
2022-11-28T10:57:07.561Z,21.17
2022-11-28T10:59:57.760Z,22.23
2022-11-28T11:02:37.477Z,18.83
2022-11-28T11:05:14.479Z,19.83
2022-11-28T11:07:51.346Z,18.63
2022-11-28T11:10:34.607Z,18.05
2022-11-28T11:13:19.722Z,17.25
2022-11-28T11:15:59.838Z,16.42
2022-11-28T11:18:53.274Z,16.17
2022-11-28T11:21:28.272Z,16.65
2022-11-28T11:24:14.436Z,18.48
2022-11-28T11:26:49.945Z,16.88
2022-11-28T11:29:31.805Z,16.60
2022-11-28T11:32:07.760Z,17.23
2022-11-28T11:34:47.059Z,15.25
2022-11-28T11:37:31.467Z,15.38
2022-11-28T11:40:22.075Z,15.35
2022-11-28T11:42:58.178Z,16.30
2022-11-28T11:45:35.179Z,14.88
2022-11-28T11:48:13.740Z,18.25
2022-11-28T11:50:55.982Z,20.33
2022-11-28T11:53:28.972Z,18.45
2022-11-28T11:58:44.307Z,20.10
2022-11-28T12:01:22.266Z,21.90
2022-11-28T12:04:08.502Z,22.58
2022-11-28T12:06:54.714Z,18.85
2022-11-28T12:09:32.366Z,19.90
2022-11-28T12:12:15.107Z,21.08
2022-11-28T12:14:50.891Z,17.73
2022-11-28T12:17:53.407Z,17.90
2022-11-28T12:20:46.394Z,20.40
2022-11-28T12:23:44.935Z,19.45
2022-11-28T12:26:23.809Z,18.58
2022-11-28T12:29:36.552Z,17.25
2022-11-28T12:32:26.446Z,17.63
2022-11-28T12:35:19.953Z,17.45
2022-11-28T12:38:11.729Z,15.60
2022-11-28T12:40:57.212Z,15.88
2022-11-28T12:43:43.533Z,16.25
2022-11-28T12:46:25.285Z,15.90
2022-11-28T12:49:14.373Z,16.98
2022-11-28T12:52:04.420Z,15.98
2022-11-28T12:55:09.564Z,16.55
2022-11-28T12:57:48.362Z,13.20
2022-11-28T13:00:24.193Z,14.43
2022-11-28T13:03:12.737Z,11.88
2022-11-28T13:05:57.308Z,11.13
2022-11-28T13:08:52.648Z,11.43
2022-11-28T13:11:46.111Z,11.05
2022-11-28T13:17:07.585Z,9.45
2022-11-28T13:19:49.962Z,9.95
2022-11-28T13:22:25.687Z,9.05
2022-11-28T13:25:11.039Z,9.55
2022-11-28T13:27:49.977Z,9.32
2022-11-28T13:30:26.097Z,8.77
2022-11-28T13:33:04.416Z,8.88
2022-11-28T13:35:38.604Z,9.48
2022-11-28T13:38:37.250Z,9.25
2022-11-28T13:41:52.722Z,9.27
2022-11-28T13:44:20.032Z,7.72
2022-11-28T13:46:53.588Z,8.45
2022-11-28T13:49:29.602Z,7.68
2022-11-28T13:52:33.088Z,8.73
2022-11-28T13:55:06.423Z,8.23
2022-11-28T13:57:40.594Z,7.10
2022-11-28T14:00:23.718Z,7.97
2022-11-28T14:03:00.045Z,7.65
2022-11-28T14:05:36.404Z,8.07
2022-11-28T14:08:09.914Z,8.88
2022-11-28T14:11:27.731Z,7.72
2022-11-28T14:14:47.404Z,8.82
2022-11-28T14:17:39.859Z,7.90
2022-11-28T14:20:26.213Z,7.65
2022-11-28T14:23:18.435Z,7.90
2022-11-28T14:25:55.818Z,7.75
2022-11-28T14:28:37.102Z,7.20
2022-11-28T14:31:26.140Z,8.00
2022-11-28T14:34:03.646Z,7.90
2022-11-28T14:36:42.197Z,7.70
2022-11-28T14:39:36.326Z,7.80
2022-11-28T14:45:44.599Z,7.40
2022-11-28T14:48:21.757Z,6.80
2022-11-28T14:51:01.314Z,7.55
2022-11-28T14:53:48.179Z,7.00
2022-11-28T14:56:29.495Z,7.10
2022-11-28T14:59:04.512Z,7.30
2022-11-28T15:01:53.965Z,7.50
2022-11-28T15:04:52.048Z,8.30
2022-11-28T15:07:36.650Z,7.70
2022-11-28T15:10:15.769Z,7.55
2022-11-28T15:13:02.452Z,9.30
2022-11-28T15:15:36.111Z,7.80
2022-11-28T15:18:12.401Z,9.23
2022-11-28T15:20:53.832Z,7.65
2022-11-28T15:23:32.190Z,9.40
2022-11-28T15:26:07.069Z,9.55
2022-11-28T15:28:40.066Z,8.43
2022-11-28T15:31:22.849Z,8.80
2022-11-28T15:34:00.813Z,10.07
2022-11-28T15:36:34.897Z,9.32
2022-11-28T15:39:31.230Z,9.20
2022-11-28T15:42:10.548Z,9.73
2022-11-28T15:44:45.347Z,10.27
2022-11-28T15:47:26.573Z,9.18
2022-11-28T15:50:17.205Z,8.63
2022-11-28T15:52:58.533Z,10.30
2022-11-28T15:55:37.234Z,10.40
2022-11-28T15:58:21.048Z,11.18
2022-11-28T16:01:00.529Z,12.52
2022-11-28T16:03:41.352Z,12.82
2022-11-28T16:06:14.962Z,13.30
2022-11-28T16:08:54.224Z,14.60
2022-11-28T16:11:30.837Z,13.65
2022-11-28T16:14:10.242Z,14.15
2022-11-28T16:16:43.803Z,15.07
2022-11-28T16:19:25.198Z,16.45
2022-11-28T16:22:03.418Z,16.85
2022-11-28T16:24:46.428Z,17.33
2022-11-28T16:30:30.316Z,16.55
2022-11-28T16:33:04.975Z,18.80
2022-11-28T16:35:41.701Z,18.92
2022-11-28T16:38:17.723Z,19.33
2022-11-28T16:40:51.105Z,19.40
2022-11-28T16:43:32.451Z,18.65
2022-11-28T16:46:10.377Z,20.05
2022-11-28T16:48:49.554Z,20.05
2022-11-28T16:51:40.519Z,21.63
2022-11-28T16:54:31.434Z,22.20
2022-11-28T16:57:16.041Z,24.00
2022-11-28T16:59:53.169Z,23.85
2022-11-28T17:02:27.282Z,26.00
2022-11-28T17:05:00.478Z,23.92
2022-11-28T17:07:35.576Z,25.50
2022-11-28T17:10:13.045Z,26.38
2022-11-28T17:12:48.035Z,26.85
2022-11-28T17:15:31.937Z,25.70
2022-11-28T17:18:38.589Z,26.08
2022-11-28T17:21:15.599Z,26.25
2022-11-28T17:23:49.255Z,23.83
2022-11-28T17:26:22.681Z,27.10
2022-11-28T17:28:56.263Z,26.33
2022-11-28T17:31:35.965Z,25.45
2022-11-28T17:34:15.242Z,25.23
2022-11-28T17:36:48.902Z,26.48
2022-11-28T17:39:22.260Z,27.15
2022-11-28T17:41:56.994Z,25.88
2022-11-28T17:44:32.381Z,26.33
2022-11-28T17:47:07.377Z,25.75
2022-11-28T17:49:46.132Z,29.05
2022-11-28T17:52:21.152Z,29.38
2022-11-28T17:55:00.859Z,29.33
2022-11-28T17:57:38.134Z,26.50
2022-11-28T18:00:13.925Z,28.70
2022-11-28T18:02:49.180Z,30.58
2022-11-28T18:05:22.442Z,30.42
2022-11-28T18:07:56.005Z,29.55
2022-11-28T18:10:29.352Z,28.05
2022-11-28T18:13:08.308Z,29.00
2022-11-28T18:15:43.763Z,29.80
2022-11-28T18:18:18.141Z,28.98
2022-11-28T18:20:53.148Z,29.38
2022-11-28T18:23:26.360Z,28.33
2022-11-28T18:25:59.503Z,28.58
2022-11-28T18:28:33.195Z,27.65
2022-11-28T18:31:11.562Z,29.02
2022-11-28T18:33:47.416Z,27.55
2022-11-28T18:36:22.955Z,28.17
2022-11-28T18:38:57.007Z,28.27
2022-11-28T18:41:31.653Z,27.77
2022-11-28T18:44:05.936Z,28.45
2022-11-28T18:46:40.103Z,28.15
2022-11-28T18:49:19.090Z,27.55
2022-11-28T18:51:52.456Z,28.92
2022-11-28T18:54:27.436Z,28.38
2022-11-28T18:57:00.690Z,27.73
2022-11-28T18:59:34.391Z,27.48
2022-11-28T19:02:14.119Z,26.33
2022-11-28T19:04:48.291Z,27.13
2022-11-28T19:07:22.248Z,25.13
2022-11-28T19:09:55.668Z,24.38
2022-11-28T19:12:31.544Z,25.08
2022-11-28T19:15:05.016Z,25.98
2022-11-28T19:17:38.841Z,26.02
2022-11-28T19:20:13.815Z,24.42
2022-11-28T19:22:49.798Z,26.42
2022-11-28T19:25:23.345Z,25.50
2022-11-28T19:27:56.545Z,23.40
2022-11-28T19:30:29.780Z,23.77
2022-11-28T19:33:05.847Z,24.65
2022-11-28T19:35:40.249Z,24.50
2022-11-28T19:38:14.429Z,25.02
2022-11-28T19:40:50.592Z,24.42
2022-11-28T19:43:25.171Z,24.00
2022-11-28T19:45:59.270Z,23.10
2022-11-28T19:48:35.044Z,22.15
2022-11-28T19:51:10.766Z,23.73
2022-11-28T19:53:45.871Z,23.02
2022-11-28T19:56:22.622Z,22.50
2022-11-28T19:58:57.396Z,21.65
2022-11-28T20:01:30.718Z,20.73
2022-11-28T20:06:46.814Z,21.85
2022-11-28T20:09:35.980Z,21.88
2022-11-28T20:12:10.402Z,21.50
2022-11-28T20:14:43.577Z,21.00
2022-11-28T20:17:17.871Z,20.75
2022-11-28T20:19:53.915Z,18.77
2022-11-28T20:22:30.935Z,19.77
2022-11-28T20:25:08.656Z,19.33
2022-11-28T20:27:42.010Z,19.90
2022-11-28T20:30:16.735Z,20.25
2022-11-28T20:32:50.512Z,19.60
2022-11-28T20:38:01.235Z,20.20
2022-11-28T20:40:35.091Z,23.08
2022-11-28T20:45:42.598Z,20.77
2022-11-28T20:48:15.877Z,20.27
2022-11-28T20:50:49.445Z,21.73
2022-11-28T20:53:26.942Z,18.77
2022-11-28T20:56:01.987Z,19.77
2022-11-28T20:58:35.166Z,19.83
2022-11-28T21:01:14.258Z,19.42
2022-11-28T21:03:48.090Z,19.42
2022-11-28T21:06:26.224Z,20.63
2022-11-28T21:09:01.173Z,19.70
2022-11-28T21:11:56.122Z,18.90
2022-11-28T21:14:30.961Z,19.30
2022-11-28T21:17:09.395Z,19.23
2022-11-28T21:19:48.615Z,18.80
2022-11-28T21:22:25.596Z,20.08
2022-11-28T21:25:04.127Z,19.40
2022-11-28T21:27:46.625Z,18.58
2022-11-28T21:30:19.623Z,18.98
2022-11-28T21:35:25.488Z,18.10
2022-11-28T21:37:58.731Z,18.23
2022-11-28T21:40:35.597Z,19.10
2022-11-28T21:43:08.576Z,20.30
2022-11-28T21:45:44.739Z,19.33
2022-11-28T21:48:19.213Z,19.10
2022-11-28T21:50:52.648Z,19.50
2022-11-28T21:53:27.162Z,19.30
2022-11-28T21:56:02.708Z,19.67
2022-11-28T21:58:42.344Z,19.00
2022-11-28T22:01:20.324Z,18.95
2022-11-28T22:03:59.140Z,16.95
2022-11-28T22:06:35.173Z,17.58
2022-11-28T22:09:09.848Z,16.90
2022-11-28T22:11:46.402Z,17.42
2022-11-28T22:14:36.498Z,17.90
2022-11-28T22:17:10.380Z,17.73
2022-11-28T22:19:43.839Z,17.23
2022-11-28T22:22:19.267Z,16.85
2022-11-28T22:24:52.206Z,17.02
2022-11-28T22:27:31.483Z,15.98
2022-11-28T22:30:05.422Z,16.52
2022-11-28T22:32:41.785Z,16.73
2022-11-28T22:35:14.792Z,17.00
2022-11-28T22:37:54.275Z,14.85
2022-11-28T22:40:27.418Z,16.40
2022-11-28T22:43:03.559Z,16.05
2022-11-28T22:48:34.497Z,15.57
2022-11-28T22:51:11.484Z,14.95
2022-11-28T22:53:45.485Z,16.50
2022-11-28T22:56:20.086Z,15.35
2022-11-28T22:58:56.631Z,14.27
2022-11-28T23:01:38.355Z,15.98
2022-11-28T23:04:12.270Z,18.20
2022-11-28T23:06:45.800Z,15.95
2022-11-28T23:09:22.157Z,14.77
2022-11-28T23:11:56.476Z,15.98
2022-11-28T23:14:31.648Z,14.35
2022-11-28T23:17:05.103Z,15.43
2022-11-28T23:22:38.834Z,15.48
2022-11-28T23:25:12.374Z,14.82
2022-11-28T23:27:48.556Z,14.77
2022-11-28T23:30:25.345Z,14.38
2022-11-28T23:32:58.296Z,14.48
2022-11-28T23:38:04.169Z,11.15
2022-11-28T23:43:10.318Z,14.48
2022-11-28T23:45:44.633Z,15.50
2022-11-28T23:48:18.513Z,14.38
2022-11-28T23:50:51.399Z,15.52
2022-11-28T23:56:14.289Z,14.95
2022-11-28T23:58:49.173Z,14.15
